sensor_id;sensor_type;location;lat;lon;timestamp;P1;durP1;ratioP1;P2;durP2;ratioP2
38853;SDS011;24606;51.992;4.198;2024-02-21T00:04:35;25.77;;;4.63;;
38853;SDS011;24606;51.992;4.198;2024-02-21T00:09:39;32.10;;;4.28;;
38853;SDS011;24606;51.992;4.198;2024-02-21T00:14:48;27.80;;;3.53;;
38853;SDS011;24606;51.992;4.198;2024-02-21T00:19:50;33.53;;;5.97;;
38853;SDS011;24606;51.992;4.198;2024-02-21T00:24:52;39.40;;;5.90;;
38853;SDS011;24606;51.992;4.198;2024-02-21T00:29:56;49.75;;;9.45;;
38853;SDS011;24606;51.992;4.198;2024-02-21T00:34:58;45.25;;;6.03;;
38853;SDS011;24606;51.992;4.198;2024-02-21T00:40:00;41.42;;;5.65;;
38853;SDS011;24606;51.992;4.198;2024-02-21T00:45:04;48.63;;;6.47;;
38853;SDS011;24606;51.992;4.198;2024-02-21T00:50:08;34.58;;;4.70;;
38853;SDS011;24606;51.992;4.198;2024-02-21T00:55:11;34.37;;;4.80;;
38853;SDS011;24606;51.992;4.198;2024-02-21T01:00:14;31.73;;;6.13;;
38853;SDS011;24606;51.992;4.198;2024-02-21T01:05:17;38.58;;;6.05;;
38853;SDS011;24606;51.992;4.198;2024-02-21T01:10:19;32.33;;;5.43;;
38853;SDS011;24606;51.992;4.198;2024-02-21T01:15:24;32.65;;;4.78;;
38853;SDS011;24606;51.992;4.198;2024-02-21T01:20:26;27.23;;;3.92;;
38853;SDS011;24606;51.992;4.198;2024-02-21T01:25:28;34.22;;;3.50;;
38853;SDS011;24606;51.992;4.198;2024-02-21T01:30:32;32.00;;;4.90;;
38853;SDS011;24606;51.992;4.198;2024-02-21T01:35:34;28.58;;;5.43;;
38853;SDS011;24606;51.992;4.198;2024-02-21T01:40:36;28.77;;;4.72;;
38853;SDS011;24606;51.992;4.198;2024-02-21T01:45:39;35.73;;;5.53;;
38853;SDS011;24606;51.992;4.198;2024-02-21T01:50:42;26.52;;;3.17;;
38853;SDS011;24606;51.992;4.198;2024-02-21T01:55:44;34.90;;;4.30;;
38853;SDS011;24606;51.992;4.198;2024-02-21T02:00:48;23.50;;;2.83;;
38853;SDS011;24606;51.992;4.198;2024-02-21T02:05:51;37.35;;;5.30;;
38853;SDS011;24606;51.992;4.198;2024-02-21T02:10:53;30.05;;;4.32;;
38853;SDS011;24606;51.992;4.198;2024-02-21T02:15:56;26.60;;;5.53;;
38853;SDS011;24606;51.992;4.198;2024-02-21T02:20:58;31.60;;;5.90;;
38853;SDS011;24606;51.992;4.198;2024-02-21T02:26:02;32.30;;;5.40;;
38853;SDS011;24606;51.992;4.198;2024-02-21T02:31:07;30.00;;;4.47;;
38853;SDS011;24606;51.992;4.198;2024-02-21T02:36:09;23.55;;;5.22;;
38853;SDS011;24606;51.992;4.198;2024-02-21T02:41:12;24.17;;;5.07;;
38853;SDS011;24606;51.992;4.198;2024-02-21T02:46:16;21.00;;;3.38;;
38853;SDS011;24606;51.992;4.198;2024-02-21T02:51:18;25.70;;;5.57;;
38853;SDS011;24606;51.992;4.198;2024-02-21T02:56:21;25.73;;;4.10;;
38853;SDS011;24606;51.992;4.198;2024-02-21T03:01:23;28.67;;;6.22;;
38853;SDS011;24606;51.992;4.198;2024-02-21T03:06:25;20.15;;;4.25;;
38853;SDS011;24606;51.992;4.198;2024-02-21T03:11:29;24.30;;;4.60;;
38853;SDS011;24606;51.992;4.198;2024-02-21T03:16:31;22.90;;;5.65;;
38853;SDS011;24606;51.992;4.198;2024-02-21T03:21:33;28.15;;;5.18;;
38853;SDS011;24606;51.992;4.198;2024-02-21T03:26:36;25.70;;;5.68;;
38853;SDS011;24606;51.992;4.198;2024-02-21T03:31:38;23.33;;;6.10;;
38853;SDS011;24606;51.992;4.198;2024-02-21T03:36:40;22.55;;;4.80;;
38853;SDS011;24606;51.992;4.198;2024-02-21T03:41:44;26.90;;;7.18;;
38853;SDS011;24606;51.992;4.198;2024-02-21T03:46:46;16.95;;;5.05;;
38853;SDS011;24606;51.992;4.198;2024-02-21T03:51:48;10.82;;;4.13;;
38853;SDS011;24606;51.992;4.198;2024-02-21T03:56:51;31.85;;;5.55;;
38853;SDS011;24606;51.992;4.198;2024-02-21T04:15:35;12.88;;;4.30;;
38853;SDS011;24606;51.992;4.198;2024-02-21T04:20:40;15.80;;;5.03;;
38853;SDS011;24606;51.992;4.198;2024-02-21T04:25:42;24.50;;;6.72;;
38853;SDS011;24606;51.992;4.198;2024-02-21T04:30:45;4.90;;;2.15;;
38853;SDS011;24606;51.992;4.198;2024-02-21T04:35:47;24.40;;;7.28;;
38853;SDS011;24606;51.992;4.198;2024-02-21T04:40:49;12.30;;;3.50;;
38853;SDS011;24606;51.992;4.198;2024-02-21T04:45:54;23.50;;;7.40;;
38853;SDS011;24606;51.992;4.198;2024-02-21T04:50:56;13.20;;;4.93;;
38853;SDS011;24606;51.992;4.198;2024-02-21T04:55:59;18.17;;;4.50;;
38853;SDS011;24606;51.992;4.198;2024-02-21T05:01:03;15.80;;;5.40;;
38853;SDS011;24606;51.992;4.198;2024-02-21T05:06:05;14.82;;;5.70;;
38853;SDS011;24606;51.992;4.198;2024-02-21T05:11:08;17.92;;;7.28;;
38853;SDS011;24606;51.992;4.198;2024-02-21T05:16:11;12.43;;;5.78;;
38853;SDS011;24606;51.992;4.198;2024-02-21T05:21:13;13.95;;;5.55;;
38853;SDS011;24606;51.992;4.198;2024-02-21T05:26:19;13.02;;;6.35;;
38853;SDS011;24606;51.992;4.198;2024-02-21T05:31:25;18.88;;;6.63;;
38853;SDS011;24606;51.992;4.198;2024-02-21T05:36:28;11.93;;;4.63;;
38853;SDS011;24606;51.992;4.198;2024-02-21T05:41:30;14.55;;;5.72;;
38853;SDS011;24606;51.992;4.198;2024-02-21T05:46:33;11.23;;;5.00;;
38853;SDS011;24606;51.992;4.198;2024-02-21T05:51:36;12.77;;;7.05;;
38853;SDS011;24606;51.992;4.198;2024-02-21T05:56:38;11.07;;;5.65;;
38853;SDS011;24606;51.992;4.198;2024-02-21T06:01:41;14.65;;;6.60;;
38853;SDS011;24606;51.992;4.198;2024-02-21T06:06:44;20.08;;;6.78;;
38853;SDS011;24606;51.992;4.198;2024-02-21T06:11:46;20.55;;;9.13;;
38853;SDS011;24606;51.992;4.198;2024-02-21T06:16:50;18.95;;;10.00;;
38853;SDS011;24606;51.992;4.198;2024-02-21T06:21:52;21.83;;;10.30;;
38853;SDS011;24606;51.992;4.198;2024-02-21T06:26:54;17.88;;;7.72;;
38853;SDS011;24606;51.992;4.198;2024-02-21T06:31:58;8.57;;;4.00;;
38853;SDS011;24606;51.992;4.198;2024-02-21T06:37:00;20.70;;;9.07;;
38853;SDS011;24606;51.992;4.198;2024-02-21T06:42:02;9.40;;;5.20;;
38853;SDS011;24606;51.992;4.198;2024-02-21T06:47:09;21.70;;;7.68;;
38853;SDS011;24606;51.992;4.198;2024-02-21T06:52:11;18.30;;;7.63;;
38853;SDS011;24606;51.992;4.198;2024-02-21T06:57:16;20.60;;;9.85;;
38853;SDS011;24606;51.992;4.198;2024-02-21T07:02:20;20.00;;;9.20;;
38853;SDS011;24606;51.992;4.198;2024-02-21T07:07:22;24.85;;;10.07;;
38853;SDS011;24606;51.992;4.198;2024-02-21T07:12:24;18.27;;;9.30;;
38853;SDS011;24606;51.992;4.198;2024-02-21T07:17:28;18.40;;;7.25;;
38853;SDS011;24606;51.992;4.198;2024-02-21T07:22:30;19.67;;;9.23;;
38853;SDS011;24606;51.992;4.198;2024-02-21T07:27:32;24.52;;;11.57;;
38853;SDS011;24606;51.992;4.198;2024-02-21T07:32:35;27.48;;;11.50;;
38853;SDS011;24606;51.992;4.198;2024-02-21T07:37:37;25.35;;;9.82;;
38853;SDS011;24606;51.992;4.198;2024-02-21T07:42:39;12.03;;;5.63;;
38853;SDS011;24606;51.992;4.198;2024-02-21T07:47:44;18.40;;;7.23;;
38853;SDS011;24606;51.992;4.198;2024-02-21T07:52:46;14.35;;;7.55;;
38853;SDS011;24606;51.992;4.198;2024-02-21T07:57:48;23.20;;;8.70;;
38853;SDS011;24606;51.992;4.198;2024-02-21T08:02:52;11.93;;;6.30;;
38853;SDS011;24606;51.992;4.198;2024-02-21T08:07:54;18.55;;;7.95;;
38853;SDS011;24606;51.992;4.198;2024-02-21T08:12:56;19.50;;;7.83;;
38853;SDS011;24606;51.992;4.198;2024-02-21T08:18:02;14.25;;;6.53;;
38853;SDS011;24606;51.992;4.198;2024-02-21T08:23:05;16.33;;;7.10;;
38853;SDS011;24606;51.992;4.198;2024-02-21T08:28:07;13.05;;;4.97;;
38853;SDS011;24606;51.992;4.198;2024-02-21T08:33:11;13.47;;;7.33;;
38853;SDS011;24606;51.992;4.198;2024-02-21T08:38:13;11.70;;;5.78;;
38853;SDS011;24606;51.992;4.198;2024-02-21T08:43:15;16.23;;;8.20;;
38853;SDS011;24606;51.992;4.198;2024-02-21T08:48:21;12.95;;;6.70;;
38853;SDS011;24606;51.992;4.198;2024-02-21T08:53:24;12.90;;;6.13;;
38853;SDS011;24606;51.992;4.198;2024-02-21T08:58:26;12.90;;;5.43;;
38853;SDS011;24606;51.992;4.198;2024-02-21T09:03:29;12.17;;;6.60;;
38853;SDS011;24606;51.992;4.198;2024-02-21T09:08:32;13.55;;;5.93;;
38853;SDS011;24606;51.992;4.198;2024-02-21T09:13:34;13.17;;;5.20;;
38853;SDS011;24606;51.992;4.198;2024-02-21T09:18:38;13.10;;;6.77;;
38853;SDS011;24606;51.992;4.198;2024-02-21T09:23:40;11.38;;;4.32;;
38853;SDS011;24606;51.992;4.198;2024-02-21T09:28:42;11.75;;;5.72;;
38853;SDS011;24606;51.992;4.198;2024-02-21T09:38:48;12.63;;;7.07;;
38853;SDS011;24606;51.992;4.198;2024-02-21T09:43:50;8.87;;;5.33;;
38853;SDS011;24606;51.992;4.198;2024-02-21T09:49:04;12.60;;;6.80;;
38853;SDS011;24606;51.992;4.198;2024-02-21T09:54:15;9.00;;;5.55;;
38853;SDS011;24606;51.992;4.198;2024-02-21T09:59:18;15.60;;;6.55;;
38853;SDS011;24606;51.992;4.198;2024-02-21T10:04:23;9.88;;;5.82;;
38853;SDS011;24606;51.992;4.198;2024-02-21T10:09:25;19.77;;;7.18;;
38853;SDS011;24606;51.992;4.198;2024-02-21T10:14:28;16.02;;;6.72;;
38853;SDS011;24606;51.992;4.198;2024-02-21T10:19:31;14.88;;;5.95;;
38853;SDS011;24606;51.992;4.198;2024-02-21T10:24:33;14.95;;;5.50;;
38853;SDS011;24606;51.992;4.198;2024-02-21T10:29:38;13.13;;;7.15;;
38853;SDS011;24606;51.992;4.198;2024-02-21T10:34:43;16.13;;;9.75;;
38853;SDS011;24606;51.992;4.198;2024-02-21T10:39:45;13.32;;;7.45;;
38853;SDS011;24606;51.992;4.198;2024-02-21T10:44:48;10.00;;;8.05;;
38853;SDS011;24606;51.992;4.198;2024-02-21T10:49:56;9.73;;;6.05;;
38853;SDS011;24606;51.992;4.198;2024-02-21T10:55:07;9.10;;;5.82;;
38853;SDS011;24606;51.992;4.198;2024-02-21T11:00:13;11.60;;;7.57;;
38853;SDS011;24606;51.992;4.198;2024-02-21T11:05:19;12.60;;;5.90;;
38853;SDS011;24606;51.992;4.198;2024-02-21T11:10:22;11.35;;;6.85;;
38853;SDS011;24606;51.992;4.198;2024-02-21T11:15:26;15.15;;;7.35;;
38853;SDS011;24606;51.992;4.198;2024-02-21T11:20:36;9.57;;;6.72;;
38853;SDS011;24606;51.992;4.198;2024-02-21T11:25:39;13.45;;;7.32;;
38853;SDS011;24606;51.992;4.198;2024-02-21T11:30:41;10.23;;;6.47;;
38853;SDS011;24606;51.992;4.198;2024-02-21T11:35:45;16.85;;;7.82;;
38853;SDS011;24606;51.992;4.198;2024-02-21T11:40:47;13.25;;;7.18;;
38853;SDS011;24606;51.992;4.198;2024-02-21T11:45:49;11.77;;;6.47;;
38853;SDS011;24606;51.992;4.198;2024-02-21T11:50:56;13.80;;;5.70;;
38853;SDS011;24606;51.992;4.198;2024-02-21T11:55:58;10.02;;;6.35;;
38853;SDS011;24606;51.992;4.198;2024-02-21T12:01:11;14.03;;;5.77;;
38853;SDS011;24606;51.992;4.198;2024-02-21T12:06:20;13.30;;;5.28;;
38853;SDS011;24606;51.992;4.198;2024-02-21T12:11:23;5.07;;;3.13;;
38853;SDS011;24606;51.992;4.198;2024-02-21T12:16:25;8.75;;;2.97;;
38853;SDS011;24606;51.992;4.198;2024-02-21T12:21:31;7.90;;;4.00;;
38853;SDS011;24606;51.992;4.198;2024-02-21T12:26:36;9.00;;;3.50;;
38853;SDS011;24606;51.992;4.198;2024-02-21T12:31:39;8.47;;;5.57;;
38853;SDS011;24606;51.992;4.198;2024-02-21T12:36:42;9.67;;;4.90;;
38853;SDS011;24606;51.992;4.198;2024-02-21T12:41:47;7.22;;;3.50;;
38853;SDS011;24606;51.992;4.198;2024-02-21T12:46:49;9.90;;;4.60;;
38853;SDS011;24606;51.992;4.198;2024-02-21T12:51:55;8.63;;;5.00;;
38853;SDS011;24606;51.992;4.198;2024-02-21T12:56:57;10.35;;;5.32;;
38853;SDS011;24606;51.992;4.198;2024-02-21T13:02:03;4.70;;;2.15;;
38853;SDS011;24606;51.992;4.198;2024-02-21T13:07:07;8.82;;;3.60;;
38853;SDS011;24606;51.992;4.198;2024-02-21T13:12:09;12.98;;;4.78;;
38853;SDS011;24606;51.992;4.198;2024-02-21T13:17:12;10.23;;;4.72;;
38853;SDS011;24606;51.992;4.198;2024-02-21T13:22:16;7.50;;;4.03;;
38853;SDS011;24606;51.992;4.198;2024-02-21T13:27:22;6.57;;;5.03;;
38853;SDS011;24606;51.992;4.198;2024-02-21T13:32:24;5.00;;;2.70;;
38853;SDS011;24606;51.992;4.198;2024-02-21T13:37:28;10.93;;;3.70;;
38853;SDS011;24606;51.992;4.198;2024-02-21T13:42:31;5.35;;;3.72;;
38853;SDS011;24606;51.992;4.198;2024-02-21T13:47:33;9.98;;;3.90;;
38853;SDS011;24606;51.992;4.198;2024-02-21T13:52:38;8.23;;;3.53;;
38853;SDS011;24606;51.992;4.198;2024-02-21T13:57:39;7.80;;;5.07;;
38853;SDS011;24606;51.992;4.198;2024-02-21T14:02:42;16.27;;;5.97;;
38853;SDS011;24606;51.992;4.198;2024-02-21T14:07:45;6.60;;;4.88;;
38853;SDS011;24606;51.992;4.198;2024-02-21T14:12:47;11.35;;;4.97;;
38853;SDS011;24606;51.992;4.198;2024-02-21T14:17:49;5.97;;;3.70;;
38853;SDS011;24606;51.992;4.198;2024-02-21T14:22:52;10.23;;;6.10;;
38853;SDS011;24606;51.992;4.198;2024-02-21T14:27:54;7.97;;;5.40;;
38853;SDS011;24606;51.992;4.198;2024-02-21T14:32:56;9.27;;;3.93;;
38853;SDS011;24606;51.992;4.198;2024-02-21T14:38:00;12.37;;;5.23;;
38853;SDS011;24606;51.992;4.198;2024-02-21T14:43:03;4.85;;;3.72;;
38853;SDS011;24606;51.992;4.198;2024-02-21T14:48:05;4.82;;;3.30;;
38853;SDS011;24606;51.992;4.198;2024-02-21T14:53:12;7.55;;;3.40;;
38853;SDS011;24606;51.992;4.198;2024-02-21T14:58:14;9.65;;;3.78;;
38853;SDS011;24606;51.992;4.198;2024-02-21T15:03:18;5.90;;;2.83;;
38853;SDS011;24606;51.992;4.198;2024-02-21T15:08:22;11.82;;;4.43;;
38853;SDS011;24606;51.992;4.198;2024-02-21T15:13:24;5.68;;;2.60;;
38853;SDS011;24606;51.992;4.198;2024-02-21T15:18:26;0.00;;;0.00;;
38853;SDS011;24606;51.992;4.198;2024-02-21T15:23:29;0.90;;;0.80;;
38853;SDS011;24606;51.992;4.198;2024-02-21T15:28:31;0.10;;;0.10;;
38853;SDS011;24606;51.992;4.198;2024-02-21T15:33:34;0.00;;;0.00;;
38853;SDS011;24606;51.992;4.198;2024-02-21T15:38:37;0.45;;;0.45;;
38853;SDS011;24606;51.992;4.198;2024-02-21T15:43:40;0.17;;;0.17;;
38853;SDS011;24606;51.992;4.198;2024-02-21T15:48:43;0.03;;;0.03;;
38853;SDS011;24606;51.992;4.198;2024-02-21T15:53:48;0.10;;;0.10;;
38853;SDS011;24606;51.992;4.198;2024-02-21T15:58:50;0.08;;;0.08;;
38853;SDS011;24606;51.992;4.198;2024-02-21T16:03:52;0.00;;;0.00;;
38853;SDS011;24606;51.992;4.198;2024-02-21T16:08:57;0.22;;;0.22;;
38853;SDS011;24606;51.992;4.198;2024-02-21T16:13:59;0.10;;;0.10;;
38853;SDS011;24606;51.992;4.198;2024-02-21T16:19:02;0.20;;;0.20;;
38853;SDS011;24606;51.992;4.198;2024-02-21T16:29:09;0.10;;;0.10;;
38853;SDS011;24606;51.992;4.198;2024-02-21T16:34:12;0.10;;;0.10;;
38853;SDS011;24606;51.992;4.198;2024-02-21T16:39:15;0.00;;;0.00;;
38853;SDS011;24606;51.992;4.198;2024-02-21T16:44:17;0.40;;;0.40;;
38853;SDS011;24606;51.992;4.198;2024-02-21T16:49:19;0.77;;;0.77;;
38853;SDS011;24606;51.992;4.198;2024-02-21T16:54:23;0.00;;;0.00;;
38853;SDS011;24606;51.992;4.198;2024-02-21T16:59:26;1.35;;;0.85;;
38853;SDS011;24606;51.992;4.198;2024-02-21T17:04:29;0.10;;;0.10;;
38853;SDS011;24606;51.992;4.198;2024-02-21T17:09:32;0.10;;;0.10;;
38853;SDS011;24606;51.992;4.198;2024-02-21T17:14:36;0.10;;;0.10;;
38853;SDS011;24606;51.992;4.198;2024-02-21T17:24:42;0.30;;;0.30;;
38853;SDS011;24606;51.992;4.198;2024-02-21T17:29:44;0.20;;;0.20;;
38853;SDS011;24606;51.992;4.198;2024-02-21T17:34:46;0.10;;;0.10;;
38853;SDS011;24606;51.992;4.198;2024-02-21T17:39:50;0.75;;;0.75;;
38853;SDS011;24606;51.992;4.198;2024-02-21T17:44:53;0.10;;;0.10;;
38853;SDS011;24606;51.992;4.198;2024-02-21T17:49:55;0.43;;;0.43;;
38853;SDS011;24606;51.992;4.198;2024-02-21T17:55:00;5.53;;;1.20;;
38853;SDS011;24606;51.992;4.198;2024-02-21T18:00:05;0.10;;;0.10;;
38853;SDS011;24606;51.992;4.198;2024-02-21T18:05:08;0.55;;;0.55;;
38853;SDS011;24606;51.992;4.198;2024-02-21T18:15:15;0.10;;;0.10;;
38853;SDS011;24606;51.992;4.198;2024-02-21T18:20:17;0.20;;;0.20;;
38853;SDS011;24606;51.992;4.198;2024-02-21T18:25:22;0.15;;;0.15;;
38853;SDS011;24606;51.992;4.198;2024-02-21T18:30:25;1.75;;;1.13;;
38853;SDS011;24606;51.992;4.198;2024-02-21T18:35:31;0.17;;;0.17;;
38853;SDS011;24606;51.992;4.198;2024-02-21T18:40:34;0.10;;;0.10;;
38853;SDS011;24606;51.992;4.198;2024-02-21T18:45:38;0.40;;;0.40;;
38853;SDS011;24606;51.992;4.198;2024-02-21T18:50:40;0.63;;;0.63;;
38853;SDS011;24606;51.992;4.198;2024-02-21T18:55:44;0.17;;;0.17;;
38853;SDS011;24606;51.992;4.198;2024-02-21T19:00:49;22.95;;;2.40;;
38853;SDS011;24606;51.992;4.198;2024-02-21T19:05:52;0.10;;;0.10;;
38853;SDS011;24606;51.992;4.198;2024-02-21T19:11:02;0.23;;;0.23;;
38853;SDS011;24606;51.992;4.198;2024-02-21T19:16:05;0.17;;;0.17;;
38853;SDS011;24606;51.992;4.198;2024-02-21T19:21:07;0.30;;;0.30;;
38853;SDS011;24606;51.992;4.198;2024-02-21T19:26:12;0.10;;;0.10;;
38853;SDS011;24606;51.992;4.198;2024-02-21T19:31:15;0.10;;;0.10;;
38853;SDS011;24606;51.992;4.198;2024-02-21T19:36:17;0.10;;;0.10;;
38853;SDS011;24606;51.992;4.198;2024-02-21T19:41:21;0.38;;;0.38;;
38853;SDS011;24606;51.992;4.198;2024-02-21T19:46:23;0.98;;;0.73;;
38853;SDS011;24606;51.992;4.198;2024-02-21T19:51:25;0.40;;;0.23;;
38853;SDS011;24606;51.992;4.198;2024-02-21T19:56:29;0.10;;;0.10;;
38853;SDS011;24606;51.992;4.198;2024-02-21T20:01:32;0.52;;;0.52;;
38853;SDS011;24606;51.992;4.198;2024-02-21T20:06:34;1.70;;;1.37;;
38853;SDS011;24606;51.992;4.198;2024-02-21T20:11:39;0.10;;;0.10;;
38853;SDS011;24606;51.992;4.198;2024-02-21T20:16:41;0.10;;;0.10;;
38853;SDS011;24606;51.992;4.198;2024-02-21T20:26:51;0.10;;;0.10;;
38853;SDS011;24606;51.992;4.198;2024-02-21T20:31:56;0.32;;;0.32;;
38853;SDS011;24606;51.992;4.198;2024-02-21T20:37:00;0.57;;;0.57;;
38853;SDS011;24606;51.992;4.198;2024-02-21T20:42:06;0.17;;;0.17;;
38853;SDS011;24606;51.992;4.198;2024-02-21T20:47:10;0.20;;;0.20;;
38853;SDS011;24606;51.992;4.198;2024-02-21T20:52:12;0.10;;;0.10;;
38853;SDS011;24606;51.992;4.198;2024-02-21T20:57:15;0.23;;;0.23;;
38853;SDS011;24606;51.992;4.198;2024-02-21T21:02:17;0.55;;;0.55;;
38853;SDS011;24606;51.992;4.198;2024-02-21T21:07:20;0.20;;;0.20;;
38853;SDS011;24606;51.992;4.198;2024-02-21T21:12:27;0.10;;;0.10;;
38853;SDS011;24606;51.992;4.198;2024-02-21T21:17:33;0.22;;;0.22;;
38853;SDS011;24606;51.992;4.198;2024-02-21T21:22:36;0.13;;;0.13;;
38853;SDS011;24606;51.992;4.198;2024-02-21T21:27:42;0.10;;;0.10;;
38853;SDS011;24606;51.992;4.198;2024-02-21T21:32:47;0.10;;;0.10;;
38853;SDS011;24606;51.992;4.198;2024-02-21T21:37:49;0.10;;;0.10;;
38853;SDS011;24606;51.992;4.198;2024-02-21T21:42:52;0.10;;;0.10;;
38853;SDS011;24606;51.992;4.198;2024-02-21T21:47:54;0.10;;;0.10;;
38853;SDS011;24606;51.992;4.198;2024-02-21T21:52:56;0.10;;;0.10;;
38853;SDS011;24606;51.992;4.198;2024-02-21T21:58:00;0.10;;;0.10;;
38853;SDS011;24606;51.992;4.198;2024-02-21T22:03:04;0.10;;;0.10;;
38853;SDS011;24606;51.992;4.198;2024-02-21T22:08:07;0.10;;;0.10;;
38853;SDS011;24606;51.992;4.198;2024-02-21T22:13:10;0.13;;;0.13;;
38853;SDS011;24606;51.992;4.198;2024-02-21T22:18:12;0.10;;;0.10;;
38853;SDS011;24606;51.992;4.198;2024-02-21T22:23:14;0.10;;;0.10;;
38853;SDS011;24606;51.992;4.198;2024-02-21T22:28:21;0.10;;;0.10;;
38853;SDS011;24606;51.992;4.198;2024-02-21T22:33:23;0.30;;;0.30;;
38853;SDS011;24606;51.992;4.198;2024-02-21T22:38:25;0.10;;;0.10;;
38853;SDS011;24606;51.992;4.198;2024-02-21T22:43:31;0.20;;;0.20;;
38853;SDS011;24606;51.992;4.198;2024-02-21T22:48:33;0.10;;;0.10;;
38853;SDS011;24606;51.992;4.198;2024-02-21T22:53:35;0.13;;;0.13;;
38853;SDS011;24606;51.992;4.198;2024-02-21T22:58:39;0.10;;;0.10;;
38853;SDS011;24606;51.992;4.198;2024-02-21T23:03:41;0.15;;;0.15;;
38853;SDS011;24606;51.992;4.198;2024-02-21T23:08:43;0.10;;;0.10;;
38853;SDS011;24606;51.992;4.198;2024-02-21T23:13:47;0.25;;;0.25;;
38853;SDS011;24606;51.992;4.198;2024-02-21T23:18:49;0.10;;;0.10;;
38853;SDS011;24606;51.992;4.198;2024-02-21T23:23:51;0.70;;;0.70;;
38853;SDS011;24606;51.992;4.198;2024-02-21T23:28:55;0.20;;;0.20;;
38853;SDS011;24606;51.992;4.198;2024-02-21T23:33:57;0.38;;;0.38;;
38853;SDS011;24606;51.992;4.198;2024-02-21T23:38:59;1.33;;;1.23;;
38853;SDS011;24606;51.992;4.198;2024-02-21T23:44:03;0.20;;;0.20;;
38853;SDS011;24606;51.992;4.198;2024-02-21T23:49:05;0.20;;;0.20;;
38853;SDS011;24606;51.992;4.198;2024-02-21T23:54:07;0.10;;;0.10;;
38853;SDS011;24606;51.992;4.198;2024-02-21T23:59:10;9.73;;;2.40;;
